Hovedside
METAR-TAF:

METAR-TAF

Lufthavner :

Joensuu lufthavn

Joensuu, Finland

breddegrad: 62-40N, lengdegrad: 029-38E, høyde over havet: 119 m

Gjeldene værobservasjon

Denne rapporten ble laget for 21 minutter siden, klokken 16:20 UTC
Vind 5 kt fra Øst-sørøst
Temperatur 13°C
Luftfuktighet 94%
Trykk 1023 hPa
Sikt 10 km eller mer
ingen skyer under 1500 m og ingen bygeskyer

METAR: EFJO 271620Z AUTO 11005KT CAVOK 13/12 Q1023

Tid: 19:41 (16:41 UTC)


TAF: fraværende

Værobservasjoner og værvarsel for over 4000 flyplasser (METAR- og TAF-rapporter).

Tilgjengelige stasjoner er representert av de røde og gule prikkene på kartet.

Hold musepekeren over prikken for å se navnet på stasjonen.

Klikk så for å se værobservasjoner og -varsler.

For å forandre kartet kan du klikke på den grønne knappen med svart kryss for å zoome inn, på den grønne knappen med strek for å zoome ut, eller på de grønne pilene for å se tilstøtende kart.


METAR-TAF: